sensor_id;sensor_type;location;lat;lon;timestamp;pressure;altitude;pressure_sealevel;temperature;humidity
61436;BME280;47304;47.456;19.160;2023-06-22T00:02:21;100463.11;;;21.33;80.67
61436;BME280;47304;47.456;19.160;2023-06-22T00:04:47;100457.20;;;21.34;80.57
61436;BME280;47304;47.456;19.160;2023-06-22T00:07:14;100442.92;;;21.35;80.51
61436;BME280;47304;47.456;19.160;2023-06-22T00:09:40;100440.91;;;21.36;80.21
61436;BME280;47304;47.456;19.160;2023-06-22T00:12:07;100451.45;;;21.35;80.19
61436;BME280;47304;47.456;19.160;2023-06-22T00:14:34;100458.88;;;21.33;80.23
61436;BME280;47304;47.456;19.160;2023-06-22T00:17:00;100457.24;;;21.33;80.47
61436;BME280;47304;47.456;19.160;2023-06-22T00:19:27;100460.60;;;21.34;80.70
61436;BME280;47304;47.456;19.160;2023-06-22T00:21:53;100458.35;;;21.32;80.47
61436;BME280;47304;47.456;19.160;2023-06-22T00:24:20;100457.69;;;21.31;80.56
61436;BME280;47304;47.456;19.160;2023-06-22T00:26:48;100454.42;;;21.29;80.30
61436;BME280;47304;47.456;19.160;2023-06-22T00:29:15;100463.79;;;21.26;80.47
61436;BME280;47304;47.456;19.160;2023-06-22T00:31:41;100459.59;;;21.25;80.84
61436;BME280;47304;47.456;19.160;2023-06-22T00:34:08;100458.17;;;21.24;80.68
61436;BME280;47304;47.456;19.160;2023-06-22T00:36:36;100464.17;;;21.26;80.59
61436;BME280;47304;47.456;19.160;2023-06-22T00:39:03;100469.10;;;21.27;80.75
61436;BME280;47304;47.456;19.160;2023-06-22T00:41:29;100477.95;;;21.28;81.20
61436;BME280;47304;47.456;19.160;2023-06-22T00:43:56;100480.48;;;21.27;81.38
61436;BME280;47304;47.456;19.160;2023-06-22T00:46:22;100474.83;;;21.26;80.97
61436;BME280;47304;47.456;19.160;2023-06-22T00:48:50;100467.70;;;21.26;80.90
61436;BME280;47304;47.456;19.160;2023-06-22T00:51:18;100472.39;;;21.25;80.77
61436;BME280;47304;47.456;19.160;2023-06-22T00:53:45;100481.61;;;21.22;80.40
61436;BME280;47304;47.456;19.160;2023-06-22T00:56:11;100478.04;;;21.18;80.59
61436;BME280;47304;47.456;19.160;2023-06-22T00:58:38;100474.08;;;21.15;80.57
61436;BME280;47304;47.456;19.160;2023-06-22T01:01:05;100471.63;;;21.14;80.62
61436;BME280;47304;47.456;19.160;2023-06-22T01:03:32;100467.04;;;21.13;79.77
61436;BME280;47304;47.456;19.160;2023-06-22T01:06:05;100454.66;;;21.11;79.77
61436;BME280;47304;47.456;19.160;2023-06-22T01:08:44;100458.04;;;21.11;80.03
61436;BME280;47304;47.456;19.160;2023-06-22T01:11:18;100457.95;;;21.09;80.37
61436;BME280;47304;47.456;19.160;2023-06-22T01:16:31;100454.83;;;21.07;80.74
61436;BME280;47304;47.456;19.160;2023-06-22T01:19:02;100457.98;;;21.08;81.18
61436;BME280;47304;47.456;19.160;2023-06-22T01:21:32;100458.08;;;21.06;81.61
61436;BME280;47304;47.456;19.160;2023-06-22T01:24:14;100451.47;;;21.06;81.92
61436;BME280;47304;47.456;19.160;2023-06-22T01:27:09;100447.09;;;21.09;82.13
61436;BME280;47304;47.456;19.160;2023-06-22T01:29:41;100453.28;;;21.10;82.64
61436;BME280;47304;47.456;19.160;2023-06-22T01:32:10;100450.02;;;21.11;82.82
61436;BME280;47304;47.456;19.160;2023-06-22T01:34:38;100449.05;;;21.13;82.63
61436;BME280;47304;47.456;19.160;2023-06-22T01:37:06;100450.56;;;21.15;82.49
61436;BME280;47304;47.456;19.160;2023-06-22T01:39:34;100456.13;;;21.14;82.59
61436;BME280;47304;47.456;19.160;2023-06-22T01:42:02;100455.83;;;21.13;82.90
61436;BME280;47304;47.456;19.160;2023-06-22T01:44:29;100454.02;;;21.13;83.07
61436;BME280;47304;47.456;19.160;2023-06-22T01:46:56;100455.97;;;21.13;82.89
61436;BME280;47304;47.456;19.160;2023-06-22T01:49:23;100461.28;;;21.14;82.96
61436;BME280;47304;47.456;19.160;2023-06-22T01:51:50;100455.40;;;21.14;83.02
61436;BME280;47304;47.456;19.160;2023-06-22T01:54:16;100453.95;;;21.15;82.68
61436;BME280;47304;47.456;19.160;2023-06-22T01:56:43;100450.05;;;21.15;82.91
61436;BME280;47304;47.456;19.160;2023-06-22T01:59:41;100449.97;;;21.12;82.81
61436;BME280;47304;47.456;19.160;2023-06-22T02:02:12;100446.52;;;21.09;82.63
61436;BME280;47304;47.456;19.160;2023-06-22T02:04:44;100441.36;;;21.09;82.87
61436;BME280;47304;47.456;19.160;2023-06-22T02:07:14;100446.73;;;21.09;82.84
61436;BME280;47304;47.456;19.160;2023-06-22T02:09:43;100446.91;;;21.04;82.64
61436;BME280;47304;47.456;19.160;2023-06-22T02:12:17;100452.42;;;21.00;82.73
61436;BME280;47304;47.456;19.160;2023-06-22T02:14:45;100456.00;;;20.96;83.08
61436;BME280;47304;47.456;19.160;2023-06-22T02:17:12;100466.70;;;20.95;83.12
61436;BME280;47304;47.456;19.160;2023-06-22T02:19:43;100467.95;;;20.95;83.32
61436;BME280;47304;47.456;19.160;2023-06-22T02:22:10;100463.67;;;20.96;83.56
61436;BME280;47304;47.456;19.160;2023-06-22T02:24:36;100463.71;;;20.98;83.76
61436;BME280;47304;47.456;19.160;2023-06-22T02:27:03;100463.07;;;21.01;83.93
61436;BME280;47304;47.456;19.160;2023-06-22T02:29:30;100469.08;;;21.02;83.66
61436;BME280;47304;47.456;19.160;2023-06-22T02:31:56;100470.92;;;21.00;83.44
61436;BME280;47304;47.456;19.160;2023-06-22T02:34:23;100462.61;;;20.99;83.59
61436;BME280;47304;47.456;19.160;2023-06-22T02:36:50;100459.55;;;21.01;83.36
61436;BME280;47304;47.456;19.160;2023-06-22T02:39:21;100463.95;;;21.01;83.23
61436;BME280;47304;47.456;19.160;2023-06-22T02:41:50;100471.49;;;20.99;83.25
61436;BME280;47304;47.456;19.160;2023-06-22T02:44:17;100475.74;;;20.96;83.44
61436;BME280;47304;47.456;19.160;2023-06-22T02:46:44;100476.19;;;20.94;83.61
61436;BME280;47304;47.456;19.160;2023-06-22T02:49:11;100475.82;;;20.95;84.18
61436;BME280;47304;47.456;19.160;2023-06-22T02:51:41;100475.59;;;20.96;84.32
61436;BME280;47304;47.456;19.160;2023-06-22T02:54:08;100470.94;;;20.96;84.06
61436;BME280;47304;47.456;19.160;2023-06-22T02:56:34;100471.69;;;20.95;83.76
61436;BME280;47304;47.456;19.160;2023-06-22T02:59:01;100471.66;;;20.96;83.61
61436;BME280;47304;47.456;19.160;2023-06-22T03:01:27;100468.56;;;20.98;83.74
61436;BME280;47304;47.456;19.160;2023-06-22T03:03:54;100470.47;;;20.99;83.85
61436;BME280;47304;47.456;19.160;2023-06-22T03:06:21;100472.31;;;20.97;83.83
61436;BME280;47304;47.456;19.160;2023-06-22T03:08:47;100474.27;;;20.93;84.00
61436;BME280;47304;47.456;19.160;2023-06-22T03:11:14;100479.54;;;20.91;84.01
61436;BME280;47304;47.456;19.160;2023-06-22T03:13:40;100478.40;;;20.88;83.79
61436;BME280;47304;47.456;19.160;2023-06-22T03:16:07;100481.45;;;20.87;84.35
61436;BME280;47304;47.456;19.160;2023-06-22T03:18:33;100485.36;;;20.87;84.75
61436;BME280;47304;47.456;19.160;2023-06-22T03:21:00;100476.77;;;20.88;84.46
61436;BME280;47304;47.456;19.160;2023-06-22T03:23:26;100472.66;;;20.89;84.47
61436;BME280;47304;47.456;19.160;2023-06-22T03:25:53;100471.55;;;20.90;84.38
61436;BME280;47304;47.456;19.160;2023-06-22T03:28:19;100473.73;;;20.93;84.45
61436;BME280;47304;47.456;19.160;2023-06-22T03:30:46;100478.11;;;20.95;84.71
61436;BME280;47304;47.456;19.160;2023-06-22T03:33:12;100483.00;;;20.97;84.65
61436;BME280;47304;47.456;19.160;2023-06-22T03:35:39;100489.48;;;20.99;84.64
61436;BME280;47304;47.456;19.160;2023-06-22T03:38:06;100491.02;;;21.01;84.26
61436;BME280;47304;47.456;19.160;2023-06-22T03:40:32;100481.36;;;21.02;84.24
61436;BME280;47304;47.456;19.160;2023-06-22T03:42:59;100477.55;;;21.05;84.08
61436;BME280;47304;47.456;19.160;2023-06-22T03:45:25;100477.08;;;21.07;84.03
61436;BME280;47304;47.456;19.160;2023-06-22T03:47:52;100478.36;;;21.11;83.92
61436;BME280;47304;47.456;19.160;2023-06-22T03:50:18;100473.80;;;21.13;83.54
61436;BME280;47304;47.456;19.160;2023-06-22T03:52:45;100471.02;;;21.15;83.53
61436;BME280;47304;47.456;19.160;2023-06-22T03:55:12;100478.34;;;21.19;83.50
61436;BME280;47304;47.456;19.160;2023-06-22T03:57:38;100477.48;;;21.23;83.47
61436;BME280;47304;47.456;19.160;2023-06-22T04:00:05;100475.48;;;21.24;83.03
61436;BME280;47304;47.456;19.160;2023-06-22T04:02:32;100478.57;;;21.22;82.96
61436;BME280;47304;47.456;19.160;2023-06-22T04:04:59;100484.27;;;21.22;83.16
61436;BME280;47304;47.456;19.160;2023-06-22T04:07:29;100487.87;;;21.25;83.16
61436;BME280;47304;47.456;19.160;2023-06-22T04:09:56;100485.95;;;21.29;82.87
61436;BME280;47304;47.456;19.160;2023-06-22T04:12:22;100484.52;;;21.33;82.84
61436;BME280;47304;47.456;19.160;2023-06-22T04:14:49;100485.80;;;21.36;82.28
61436;BME280;47304;47.456;19.160;2023-06-22T04:17:16;100496.84;;;21.41;82.31
61436;BME280;47304;47.456;19.160;2023-06-22T04:19:43;100500.55;;;21.45;82.42
61436;BME280;47304;47.456;19.160;2023-06-22T04:22:09;100499.88;;;21.48;82.18
61436;BME280;47304;47.456;19.160;2023-06-22T04:24:36;100495.41;;;21.53;82.30
61436;BME280;47304;47.456;19.160;2023-06-22T04:27:03;100493.11;;;21.57;82.55
61436;BME280;47304;47.456;19.160;2023-06-22T04:29:30;100492.12;;;21.59;82.01
61436;BME280;47304;47.456;19.160;2023-06-22T04:31:56;100490.89;;;21.63;82.04
61436;BME280;47304;47.456;19.160;2023-06-22T04:34:24;100489.86;;;21.66;82.05
61436;BME280;47304;47.456;19.160;2023-06-22T04:36:52;100488.07;;;21.71;82.06
61436;BME280;47304;47.456;19.160;2023-06-22T04:39:18;100485.25;;;21.71;81.17
61436;BME280;47304;47.456;19.160;2023-06-22T04:41:45;100484.53;;;21.74;80.32
61436;BME280;47304;47.456;19.160;2023-06-22T04:44:16;100489.16;;;21.78;80.20
61436;BME280;47304;47.456;19.160;2023-06-22T04:46:42;100489.14;;;21.83;80.38
61436;BME280;47304;47.456;19.160;2023-06-22T04:49:09;100486.37;;;21.85;80.24
61436;BME280;47304;47.456;19.160;2023-06-22T04:51:40;100489.29;;;21.87;79.95
61436;BME280;47304;47.456;19.160;2023-06-22T04:54:09;100491.83;;;21.90;80.07
61436;BME280;47304;47.456;19.160;2023-06-22T04:56:35;100500.43;;;21.93;80.06
61436;BME280;47304;47.456;19.160;2023-06-22T04:59:02;100502.59;;;21.96;80.39
61436;BME280;47304;47.456;19.160;2023-06-22T05:01:29;100505.95;;;22.01;80.25
61436;BME280;47304;47.456;19.160;2023-06-22T05:03:57;100503.78;;;22.05;80.07
61436;BME280;47304;47.456;19.160;2023-06-22T05:06:24;100501.48;;;22.09;79.54
61436;BME280;47304;47.456;19.160;2023-06-22T05:08:54;100505.36;;;22.14;79.86
61436;BME280;47304;47.456;19.160;2023-06-22T05:11:21;100507.80;;;22.19;79.55
61436;BME280;47304;47.456;19.160;2023-06-22T05:13:48;100510.98;;;22.23;79.64
61436;BME280;47304;47.456;19.160;2023-06-22T05:16:14;100514.98;;;22.29;79.60
61436;BME280;47304;47.456;19.160;2023-06-22T05:18:54;100518.89;;;22.34;79.24
61436;BME280;47304;47.456;19.160;2023-06-22T05:21:22;100517.74;;;22.39;79.17
61436;BME280;47304;47.456;19.160;2023-06-22T05:23:50;100522.19;;;22.44;78.85
61436;BME280;47304;47.456;19.160;2023-06-22T05:26:18;100523.89;;;22.46;78.36
61436;BME280;47304;47.456;19.160;2023-06-22T05:28:45;100527.73;;;22.48;78.63
61436;BME280;47304;47.456;19.160;2023-06-22T05:31:13;100534.13;;;22.52;78.46
61436;BME280;47304;47.456;19.160;2023-06-22T05:33:41;100533.19;;;22.57;78.33
61436;BME280;47304;47.456;19.160;2023-06-22T05:36:08;100534.89;;;22.62;78.44
61436;BME280;47304;47.456;19.160;2023-06-22T05:38:35;100535.66;;;22.68;78.08
61436;BME280;47304;47.456;19.160;2023-06-22T05:41:02;100535.94;;;22.74;77.25
61436;BME280;47304;47.456;19.160;2023-06-22T05:43:28;100540.40;;;22.81;77.08
61436;BME280;47304;47.456;19.160;2023-06-22T05:45:55;100539.40;;;22.87;77.10
61436;BME280;47304;47.456;19.160;2023-06-22T05:48:22;100546.09;;;22.93;76.73
61436;BME280;47304;47.456;19.160;2023-06-22T05:50:48;100548.37;;;22.97;76.13
61436;BME280;47304;47.456;19.160;2023-06-22T05:53:15;100550.70;;;23.04;76.17
61436;BME280;47304;47.456;19.160;2023-06-22T05:55:42;100549.87;;;23.14;76.06
61436;BME280;47304;47.456;19.160;2023-06-22T05:58:08;100551.66;;;23.22;75.76
61436;BME280;47304;47.456;19.160;2023-06-22T06:00:35;100553.20;;;23.30;75.58
61436;BME280;47304;47.456;19.160;2023-06-22T06:03:02;100555.61;;;23.39;74.74
61436;BME280;47304;47.456;19.160;2023-06-22T06:05:33;100554.84;;;23.47;74.02
61436;BME280;47304;47.456;19.160;2023-06-22T06:08:00;100560.80;;;23.57;73.36
61436;BME280;47304;47.456;19.160;2023-06-22T06:10:27;100555.23;;;23.64;72.31
61436;BME280;47304;47.456;19.160;2023-06-22T06:12:55;100555.31;;;23.69;70.73
61436;BME280;47304;47.456;19.160;2023-06-22T06:15:22;100555.86;;;23.76;70.97
61436;BME280;47304;47.456;19.160;2023-06-22T06:17:50;100554.35;;;23.84;69.80
61436;BME280;47304;47.456;19.160;2023-06-22T06:20:25;100555.92;;;23.92;69.35
61436;BME280;47304;47.456;19.160;2023-06-22T06:22:52;100559.42;;;24.01;68.90
61436;BME280;47304;47.456;19.160;2023-06-22T06:25:18;100558.73;;;24.10;68.72
61436;BME280;47304;47.456;19.160;2023-06-22T06:27:46;100555.77;;;24.19;68.45
61436;BME280;47304;47.456;19.160;2023-06-22T06:30:15;100553.61;;;24.28;67.71
61436;BME280;47304;47.456;19.160;2023-06-22T06:32:42;100549.14;;;24.38;66.79
61436;BME280;47304;47.456;19.160;2023-06-22T06:35:10;100542.35;;;24.48;66.14
61436;BME280;47304;47.456;19.160;2023-06-22T06:37:38;100537.55;;;24.57;65.64
61436;BME280;47304;47.456;19.160;2023-06-22T06:40:09;100539.48;;;24.67;65.43
61436;BME280;47304;47.456;19.160;2023-06-22T06:42:38;100543.42;;;24.77;63.90
61436;BME280;47304;47.456;19.160;2023-06-22T06:45:06;100538.40;;;24.83;62.86
61436;BME280;47304;47.456;19.160;2023-06-22T06:47:32;100537.73;;;24.92;62.75
61436;BME280;47304;47.456;19.160;2023-06-22T06:49:59;100536.95;;;25.03;62.64
61436;BME280;47304;47.456;19.160;2023-06-22T06:52:26;100533.44;;;25.14;62.34
61436;BME280;47304;47.456;19.160;2023-06-22T06:54:52;100533.71;;;25.24;62.20
61436;BME280;47304;47.456;19.160;2023-06-22T06:57:19;100535.69;;;25.33;61.01
61436;BME280;47304;47.456;19.160;2023-06-22T06:59:46;100537.66;;;25.43;59.85
61436;BME280;47304;47.456;19.160;2023-06-22T07:02:12;100532.34;;;25.54;59.43
61436;BME280;47304;47.456;19.160;2023-06-22T07:04:39;100532.21;;;25.65;59.08
61436;BME280;47304;47.456;19.160;2023-06-22T07:07:05;100532.84;;;25.75;57.68
61436;BME280;47304;47.456;19.160;2023-06-22T07:09:32;100535.89;;;25.84;57.47
61436;BME280;47304;47.456;19.160;2023-06-22T07:11:58;100533.94;;;25.93;57.41
61436;BME280;47304;47.456;19.160;2023-06-22T07:14:25;100533.94;;;25.98;55.28
61436;BME280;47304;47.456;19.160;2023-06-22T07:16:51;100528.67;;;26.05;55.31
61436;BME280;47304;47.456;19.160;2023-06-22T07:19:24;100528.23;;;26.12;54.95
61436;BME280;47304;47.456;19.160;2023-06-22T07:21:51;100525.66;;;26.20;54.86
61436;BME280;47304;47.456;19.160;2023-06-22T07:24:18;100527.19;;;26.29;54.01
61436;BME280;47304;47.456;19.160;2023-06-22T07:26:44;100529.48;;;26.38;53.78
61436;BME280;47304;47.456;19.160;2023-06-22T07:29:11;100531.02;;;26.48;53.72
61436;BME280;47304;47.456;19.160;2023-06-22T07:31:37;100525.03;;;26.57;54.30
61436;BME280;47304;47.456;19.160;2023-06-22T07:34:04;100521.33;;;26.67;53.55
61436;BME280;47304;47.456;19.160;2023-06-22T07:36:30;100520.98;;;26.75;54.18
61436;BME280;47304;47.456;19.160;2023-06-22T07:38:57;100523.52;;;26.83;53.55
61436;BME280;47304;47.456;19.160;2023-06-22T07:41:23;100524.98;;;26.91;52.92
61436;BME280;47304;47.456;19.160;2023-06-22T07:43:50;100527.17;;;26.99;52.25
61436;BME280;47304;47.456;19.160;2023-06-22T07:46:16;100526.77;;;27.05;51.87
61436;BME280;47304;47.456;19.160;2023-06-22T07:48:43;100522.95;;;27.11;51.91
61436;BME280;47304;47.456;19.160;2023-06-22T07:51:09;100520.87;;;27.18;52.47
61436;BME280;47304;47.456;19.160;2023-06-22T07:53:36;100521.55;;;27.24;51.71
61436;BME280;47304;47.456;19.160;2023-06-22T07:56:02;100517.20;;;27.32;51.99
61436;BME280;47304;47.456;19.160;2023-06-22T07:58:29;100515.45;;;27.43;51.82
61436;BME280;47304;47.456;19.160;2023-06-22T08:00:56;100515.89;;;27.54;51.49
61436;BME280;47304;47.456;19.160;2023-06-22T08:03:22;100515.61;;;27.66;50.88
61436;BME280;47304;47.456;19.160;2023-06-22T08:05:49;100514.05;;;27.76;50.12
61436;BME280;47304;47.456;19.160;2023-06-22T08:08:15;100511.17;;;27.83;50.68
61436;BME280;47304;47.456;19.160;2023-06-22T08:10:42;100509.00;;;27.94;50.95
61436;BME280;47304;47.456;19.160;2023-06-22T08:13:10;100507.66;;;28.05;50.40
61436;BME280;47304;47.456;19.160;2023-06-22T08:15:36;100507.62;;;28.16;50.45
61436;BME280;47304;47.456;19.160;2023-06-22T08:18:03;100507.93;;;28.27;51.17
61436;BME280;47304;47.456;19.160;2023-06-22T08:20:30;100505.85;;;28.38;50.33
61436;BME280;47304;47.456;19.160;2023-06-22T08:22:56;100506.89;;;28.46;50.12
61436;BME280;47304;47.456;19.160;2023-06-22T08:25:23;100509.77;;;28.56;50.59
61436;BME280;47304;47.456;19.160;2023-06-22T08:27:49;100507.45;;;28.66;50.16
61436;BME280;47304;47.456;19.160;2023-06-22T08:30:16;100505.36;;;28.72;49.57
61436;BME280;47304;47.456;19.160;2023-06-22T08:32:43;100503.79;;;28.76;48.74
61436;BME280;47304;47.456;19.160;2023-06-22T08:35:10;100504.98;;;28.82;48.72
61436;BME280;47304;47.456;19.160;2023-06-22T08:37:37;100505.49;;;28.90;49.09
61436;BME280;47304;47.456;19.160;2023-06-22T08:40:05;100508.10;;;28.96;47.54
61436;BME280;47304;47.456;19.160;2023-06-22T08:42:32;100506.57;;;28.92;47.74
61436;BME280;47304;47.456;19.160;2023-06-22T08:44:58;100503.64;;;28.93;48.07
61436;BME280;47304;47.456;19.160;2023-06-22T08:47:26;100498.40;;;28.98;49.05
61436;BME280;47304;47.456;19.160;2023-06-22T08:49:53;100497.15;;;29.07;49.48
61436;BME280;47304;47.456;19.160;2023-06-22T08:52:20;100493.95;;;29.18;49.70
61436;BME280;47304;47.456;19.160;2023-06-22T08:54:47;100494.73;;;29.27;48.76
61436;BME280;47304;47.456;19.160;2023-06-22T08:57:14;100489.05;;;29.33;47.99
61436;BME280;47304;47.456;19.160;2023-06-22T08:59:41;100489.30;;;29.42;48.00
61436;BME280;47304;47.456;19.160;2023-06-22T09:02:07;100487.94;;;29.52;47.23
61436;BME280;47304;47.456;19.160;2023-06-22T09:04:34;100487.73;;;29.60;46.48
61436;BME280;47304;47.456;19.160;2023-06-22T09:07:02;100485.63;;;29.68;46.51
61436;BME280;47304;47.456;19.160;2023-06-22T09:09:29;100484.60;;;29.74;46.07
61436;BME280;47304;47.456;19.160;2023-06-22T09:11:56;100479.65;;;29.82;46.46
61436;BME280;47304;47.456;19.160;2023-06-22T09:14:22;100476.50;;;29.90;46.03
61436;BME280;47304;47.456;19.160;2023-06-22T09:16:49;100478.58;;;29.89;45.60
61436;BME280;47304;47.456;19.160;2023-06-22T09:19:16;100475.63;;;29.90;46.26
61436;BME280;47304;47.456;19.160;2023-06-22T09:21:42;100471.07;;;29.93;46.13
61436;BME280;47304;47.456;19.160;2023-06-22T09:24:09;100466.86;;;29.93;45.51
61436;BME280;47304;47.456;19.160;2023-06-22T09:26:35;100465.63;;;29.93;46.31
61436;BME280;47304;47.456;19.160;2023-06-22T09:29:04;100461.11;;;30.00;46.29
61436;BME280;47304;47.456;19.160;2023-06-22T09:31:31;100457.59;;;30.10;46.65
61436;BME280;47304;47.456;19.160;2023-06-22T09:33:58;100459.23;;;30.19;45.87
61436;BME280;47304;47.456;19.160;2023-06-22T09:36:24;100452.47;;;30.22;45.83
61436;BME280;47304;47.456;19.160;2023-06-22T09:38:51;100453.36;;;30.26;46.17
61436;BME280;47304;47.456;19.160;2023-06-22T09:41:17;100452.70;;;30.37;46.72
61436;BME280;47304;47.456;19.160;2023-06-22T09:43:44;100457.76;;;30.50;46.21
61436;BME280;47304;47.456;19.160;2023-06-22T09:46:10;100455.05;;;30.59;45.78
61436;BME280;47304;47.456;19.160;2023-06-22T09:48:37;100461.63;;;30.69;45.78
61436;BME280;47304;47.456;19.160;2023-06-22T09:51:06;100457.77;;;30.78;46.65
61436;BME280;47304;47.456;19.160;2023-06-22T09:53:33;100452.20;;;30.89;46.53
61436;BME280;47304;47.456;19.160;2023-06-22T09:56:01;100455.02;;;30.98;45.13
61436;BME280;47304;47.456;19.160;2023-06-22T09:58:28;100455.86;;;31.03;45.50
61436;BME280;47304;47.456;19.160;2023-06-22T10:00:54;100456.04;;;31.12;46.31
61436;BME280;47304;47.456;19.160;2023-06-22T10:03:21;100453.52;;;31.22;46.17
61436;BME280;47304;47.456;19.160;2023-06-22T10:05:47;100454.74;;;31.31;46.30
61436;BME280;47304;47.456;19.160;2023-06-22T10:08:14;100451.21;;;31.37;45.83
61436;BME280;47304;47.456;19.160;2023-06-22T10:10:40;100449.64;;;31.42;46.12
61436;BME280;47304;47.456;19.160;2023-06-22T10:13:09;100452.34;;;31.51;46.87
61436;BME280;47304;47.456;19.160;2023-06-22T10:15:36;100455.82;;;31.61;46.76
61436;BME280;47304;47.456;19.160;2023-06-22T10:18:03;100451.57;;;31.70;46.02
61436;BME280;47304;47.456;19.160;2023-06-22T10:20:30;100450.09;;;31.77;45.72
61436;BME280;47304;47.456;19.160;2023-06-22T10:22:56;100455.73;;;31.77;43.58
61436;BME280;47304;47.456;19.160;2023-06-22T10:25:26;100450.92;;;31.67;43.21
61436;BME280;47304;47.456;19.160;2023-06-22T10:27:53;100453.09;;;31.57;43.27
61436;BME280;47304;47.456;19.160;2023-06-22T10:30:20;100451.75;;;31.53;44.04
61436;BME280;47304;47.456;19.160;2023-06-22T10:32:46;100444.42;;;31.58;44.51
61436;BME280;47304;47.456;19.160;2023-06-22T10:35:13;100440.75;;;31.69;44.96
61436;BME280;47304;47.456;19.160;2023-06-22T10:37:40;100445.07;;;31.80;45.24
61436;BME280;47304;47.456;19.160;2023-06-22T10:40:07;100442.70;;;31.91;45.12
61436;BME280;47304;47.456;19.160;2023-06-22T10:42:34;100442.14;;;32.01;45.16
61436;BME280;47304;47.456;19.160;2023-06-22T10:45:00;100441.63;;;32.13;44.74
61436;BME280;47304;47.456;19.160;2023-06-22T10:47:27;100430.45;;;32.22;44.17
61436;BME280;47304;47.456;19.160;2023-06-22T10:49:54;100435.94;;;32.34;44.14
61436;BME280;47304;47.456;19.160;2023-06-22T10:52:20;100433.87;;;32.43;43.53
61436;BME280;47304;47.456;19.160;2023-06-22T10:54:47;100434.13;;;32.44;42.36
61436;BME280;47304;47.456;19.160;2023-06-22T10:57:13;100432.44;;;32.41;42.25
61436;BME280;47304;47.456;19.160;2023-06-22T10:59:40;100430.46;;;32.39;41.83
61436;BME280;47304;47.456;19.160;2023-06-22T11:02:06;100429.57;;;32.34;41.95
61436;BME280;47304;47.456;19.160;2023-06-22T11:04:33;100427.02;;;32.29;41.97
61436;BME280;47304;47.456;19.160;2023-06-22T11:06:59;100429.73;;;32.29;42.37
61436;BME280;47304;47.456;19.160;2023-06-22T11:09:26;100431.83;;;32.35;42.20
61436;BME280;47304;47.456;19.160;2023-06-22T11:11:55;100427.60;;;32.46;42.14
61436;BME280;47304;47.456;19.160;2023-06-22T11:14:22;100430.67;;;32.58;42.65
61436;BME280;47304;47.456;19.160;2023-06-22T11:16:49;100423.61;;;32.72;42.26
61436;BME280;47304;47.456;19.160;2023-06-22T11:19:15;100423.67;;;32.80;41.93
61436;BME280;47304;47.456;19.160;2023-06-22T11:21:42;100417.86;;;32.91;42.00
61436;BME280;47304;47.456;19.160;2023-06-22T11:24:08;100417.87;;;33.04;41.75
61436;BME280;47304;47.456;19.160;2023-06-22T11:26:35;100416.42;;;33.14;41.35
61436;BME280;47304;47.456;19.160;2023-06-22T11:29:01;100415.80;;;33.22;41.08
61436;BME280;47304;47.456;19.160;2023-06-22T11:31:28;100419.73;;;33.26;41.73
61436;BME280;47304;47.456;19.160;2023-06-22T11:33:54;100418.14;;;33.30;41.41
61436;BME280;47304;47.456;19.160;2023-06-22T11:36:21;100416.16;;;33.32;41.01
61436;BME280;47304;47.456;19.160;2023-06-22T11:38:47;100415.73;;;33.25;39.79
61436;BME280;47304;47.456;19.160;2023-06-22T11:41:14;100418.68;;;33.13;40.12
61436;BME280;47304;47.456;19.160;2023-06-22T11:43:41;100418.65;;;33.11;41.62
61436;BME280;47304;47.456;19.160;2023-06-22T11:46:07;100414.36;;;33.15;40.84
61436;BME280;47304;47.456;19.160;2023-06-22T11:48:34;100411.85;;;33.18;40.58
61436;BME280;47304;47.456;19.160;2023-06-22T11:51:01;100409.27;;;33.24;40.93
61436;BME280;47304;47.456;19.160;2023-06-22T11:53:27;100407.77;;;33.30;40.27
61436;BME280;47304;47.456;19.160;2023-06-22T11:55:54;100404.12;;;33.28;39.74
61436;BME280;47304;47.456;19.160;2023-06-22T11:58:20;100404.75;;;33.31;40.73
61436;BME280;47304;47.456;19.160;2023-06-22T12:00:48;100404.91;;;33.37;41.04
61436;BME280;47304;47.456;19.160;2023-06-22T12:03:18;100402.76;;;33.43;40.75
61436;BME280;47304;47.456;19.160;2023-06-22T12:05:45;100402.51;;;33.51;40.85
61436;BME280;47304;47.456;19.160;2023-06-22T12:08:12;100397.52;;;33.58;40.74
61436;BME280;47304;47.456;19.160;2023-06-22T12:10:38;100392.73;;;33.62;40.75
61436;BME280;47304;47.456;19.160;2023-06-22T12:13:05;100392.77;;;33.66;41.04
61436;BME280;47304;47.456;19.160;2023-06-22T12:15:31;100394.00;;;33.66;40.52
61436;BME280;47304;47.456;19.160;2023-06-22T12:17:58;100387.09;;;33.62;39.30
61436;BME280;47304;47.456;19.160;2023-06-22T12:20:24;100388.80;;;33.59;39.63
61436;BME280;47304;47.456;19.160;2023-06-22T12:22:51;100383.48;;;33.60;39.49
61436;BME280;47304;47.456;19.160;2023-06-22T12:25:18;100379.31;;;33.60;39.70
61436;BME280;47304;47.456;19.160;2023-06-22T12:27:44;100372.17;;;33.61;39.86
61436;BME280;47304;47.456;19.160;2023-06-22T12:30:11;100367.74;;;33.57;39.61
61436;BME280;47304;47.456;19.160;2023-06-22T12:32:38;100362.59;;;33.57;40.28
61436;BME280;47304;47.456;19.160;2023-06-22T12:35:05;100363.56;;;33.56;40.03
61436;BME280;47304;47.456;19.160;2023-06-22T12:37:31;100366.03;;;33.57;39.89
61436;BME280;47304;47.456;19.160;2023-06-22T12:39:58;100365.39;;;33.57;39.82
61436;BME280;47304;47.456;19.160;2023-06-22T12:42:24;100357.73;;;33.58;40.37
61436;BME280;47304;47.456;19.160;2023-06-22T12:44:51;100356.20;;;33.61;40.10